sensor_id;sensor_type;location;lat;lon;timestamp;pressure;altitude;pressure_sealevel;temperature;humidity
68859;BME280;55864;49.238;8.092;2023-01-28T00:01:57;100189.59;;;3.17;84.42
68859;BME280;55864;49.238;8.092;2023-01-28T00:03:58;100182.75;;;3.16;84.48
68859;BME280;55864;49.238;8.092;2023-01-28T00:06:01;100174.09;;;3.15;84.87
68859;BME280;55864;49.238;8.092;2023-01-28T00:08:02;100174.19;;;3.14;85.06
68859;BME280;55864;49.238;8.092;2023-01-28T00:10:03;100181.97;;;3.14;85.26
68859;BME280;55864;49.238;8.092;2023-01-28T00:12:04;100179.47;;;3.12;84.60
68859;BME280;55864;49.238;8.092;2023-01-28T00:14:06;100174.03;;;3.00;85.01
68859;BME280;55864;49.238;8.092;2023-01-28T00:16:07;100172.38;;;2.99;84.91
68859;BME280;55864;49.238;8.092;2023-01-28T00:18:08;100177.88;;;2.93;84.92
68859;BME280;55864;49.238;8.092;2023-01-28T00:20:09;100174.50;;;2.91;84.72
68859;BME280;55864;49.238;8.092;2023-01-28T00:22:10;100170.16;;;2.91;84.80
68859;BME280;55864;49.238;8.092;2023-01-28T00:24:10;100175.09;;;2.96;85.62
68859;BME280;55864;49.238;8.092;2023-01-28T00:26:13;100169.53;;;3.03;86.40
68859;BME280;55864;49.238;8.092;2023-01-28T00:28:16;100171.34;;;3.18;90.20
68859;BME280;55864;49.238;8.092;2023-01-28T00:30:18;100168.81;;;3.17;87.92
68859;BME280;55864;49.238;8.092;2023-01-28T00:32:19;100161.81;;;3.19;87.00
68859;BME280;55864;49.238;8.092;2023-01-28T00:34:19;100164.50;;;3.17;84.76
68859;BME280;55864;49.238;8.092;2023-01-28T00:36:22;100164.72;;;3.13;84.43
68859;BME280;55864;49.238;8.092;2023-01-28T00:38:22;100170.19;;;3.07;84.32
68859;BME280;55864;49.238;8.092;2023-01-28T00:40:23;100172.88;;;3.05;83.55
68859;BME280;55864;49.238;8.092;2023-01-28T00:42:23;100172.19;;;3.02;83.51
68859;BME280;55864;49.238;8.092;2023-01-28T00:44:24;100169.91;;;2.96;83.90
68859;BME280;55864;49.238;8.092;2023-01-28T00:46:26;100170.84;;;2.95;83.90
68859;BME280;55864;49.238;8.092;2023-01-28T00:48:26;100166.72;;;2.91;84.27
68859;BME280;55864;49.238;8.092;2023-01-28T00:50:27;100169.41;;;2.89;84.49
68859;BME280;55864;49.238;8.092;2023-01-28T00:52:28;100165.06;;;2.90;84.00
68859;BME280;55864;49.238;8.092;2023-01-28T00:54:28;100171.16;;;2.88;84.46
68859;BME280;55864;49.238;8.092;2023-01-28T00:56:29;100179.09;;;2.85;84.47
68859;BME280;55864;49.238;8.092;2023-01-28T00:58:29;100179.09;;;2.85;84.57
68859;BME280;55864;49.238;8.092;2023-01-28T01:00:30;100167.03;;;2.84;84.58
68859;BME280;55864;49.238;8.092;2023-01-28T01:02:32;100172.22;;;2.84;84.37
68859;BME280;55864;49.238;8.092;2023-01-28T01:04:33;100170.53;;;2.83;84.38
68859;BME280;55864;49.238;8.092;2023-01-28T01:06:35;100172.50;;;2.78;84.44
68859;BME280;55864;49.238;8.092;2023-01-28T01:08:35;100181.22;;;2.77;84.61
68859;BME280;55864;49.238;8.092;2023-01-28T01:10:37;100177.84;;;2.75;84.46
68859;BME280;55864;49.238;8.092;2023-01-28T01:12:38;100176.94;;;2.76;84.68
68859;BME280;55864;49.238;8.092;2023-01-28T01:14:39;100174.28;;;2.78;84.83
68859;BME280;55864;49.238;8.092;2023-01-28T01:16:41;100176.88;;;2.78;84.69
68859;BME280;55864;49.238;8.092;2023-01-28T01:18:43;100175.09;;;2.78;84.46
68859;BME280;55864;49.238;8.092;2023-01-28T01:20:44;100175.09;;;2.78;84.54
68859;BME280;55864;49.238;8.092;2023-01-28T01:22:45;100189.00;;;2.77;84.33
68859;BME280;55864;49.238;8.092;2023-01-28T01:24:46;100182.06;;;2.78;84.42
68859;BME280;55864;49.238;8.092;2023-01-28T01:26:48;100178.53;;;2.79;84.43
68859;BME280;55864;49.238;8.092;2023-01-28T01:28:49;100178.72;;;2.76;84.07
68859;BME280;55864;49.238;8.092;2023-01-28T01:30:57;100190.22;;;2.70;84.50
68859;BME280;55864;49.238;8.092;2023-01-28T01:32:58;100190.22;;;2.70;84.78
68859;BME280;55864;49.238;8.092;2023-01-28T01:35:01;100192.88;;;2.69;84.91
68859;BME280;55864;49.238;8.092;2023-01-28T01:37:02;100194.47;;;2.71;84.75
68859;BME280;55864;49.238;8.092;2023-01-28T01:39:02;100197.25;;;2.68;84.88
68859;BME280;55864;49.238;8.092;2023-01-28T01:41:04;100195.47;;;2.69;84.78
68859;BME280;55864;49.238;8.092;2023-01-28T01:43:14;100193.72;;;2.69;84.56
68859;BME280;55864;49.238;8.092;2023-01-28T01:45:15;100198.91;;;2.69;84.40
68859;BME280;55864;49.238;8.092;2023-01-28T01:47:17;100194.84;;;2.64;84.70
68859;BME280;55864;49.238;8.092;2023-01-28T01:49:20;100190.59;;;2.63;84.81
68859;BME280;55864;49.238;8.092;2023-01-28T01:51:24;100188.06;;;2.61;84.90
68859;BME280;55864;49.238;8.092;2023-01-28T01:53:27;100189.84;;;2.61;84.85
68859;BME280;55864;49.238;8.092;2023-01-28T01:55:30;100194.09;;;2.62;84.59
68859;BME280;55864;49.238;8.092;2023-01-28T01:57:35;100191.50;;;2.62;84.81
68859;BME280;55864;49.238;8.092;2023-01-28T01:59:36;100191.41;;;2.63;84.92
68859;BME280;55864;49.238;8.092;2023-01-28T02:01:38;100187.25;;;2.61;85.11
68859;BME280;55864;49.238;8.092;2023-01-28T02:03:43;100188.91;;;2.62;84.74
68859;BME280;55864;49.238;8.092;2023-01-28T02:05:48;100187.16;;;2.62;84.88
68859;BME280;55864;49.238;8.092;2023-01-28T02:07:52;100188.13;;;2.60;84.61
68859;BME280;55864;49.238;8.092;2023-01-28T02:09:53;100188.06;;;2.61;84.72
68859;BME280;55864;49.238;8.092;2023-01-28T02:11:55;100189.84;;;2.61;84.85
68859;BME280;55864;49.238;8.092;2023-01-28T02:14:01;100186.41;;;2.60;84.92
68859;BME280;55864;49.238;8.092;2023-01-28T02:16:04;100181.97;;;2.62;84.75
68859;BME280;55864;49.238;8.092;2023-01-28T02:18:06;100180.34;;;2.60;84.84
68859;BME280;55864;49.238;8.092;2023-01-28T02:20:09;100171.72;;;2.59;84.56
68859;BME280;55864;49.238;8.092;2023-01-28T02:22:42;100180.44;;;2.58;84.72
68859;BME280;55864;49.238;8.092;2023-01-28T02:27:35;100183.03;;;2.58;84.60
68859;BME280;55864;49.238;8.092;2023-01-28T02:29:43;100185.72;;;2.57;84.85
68859;BME280;55864;49.238;8.092;2023-01-28T02:31:51;100188.38;;;2.55;84.83
68859;BME280;55864;49.238;8.092;2023-01-28T02:33:58;100197.81;;;2.56;84.69
68859;BME280;55864;49.238;8.092;2023-01-28T02:36:10;100194.34;;;2.57;84.54
68859;BME280;55864;49.238;8.092;2023-01-28T02:38:17;100195.06;;;2.59;84.54
68859;BME280;55864;49.238;8.092;2023-01-28T02:40:22;100193.63;;;2.54;84.72
68859;BME280;55864;49.238;8.092;2023-01-28T02:42:26;100190.97;;;2.55;84.90
68859;BME280;55864;49.238;8.092;2023-01-28T02:44:28;100186.84;;;2.51;84.83
68859;BME280;55864;49.238;8.092;2023-01-28T02:46:36;100191.09;;;2.52;84.94
68859;BME280;55864;49.238;8.092;2023-01-28T02:48:37;100197.06;;;2.54;84.89
68859;BME280;55864;49.238;8.092;2023-01-28T02:50:41;100193.63;;;2.54;84.96
68859;BME280;55864;49.238;8.092;2023-01-28T02:52:55;100192.94;;;2.50;85.15
68859;BME280;55864;49.238;8.092;2023-01-28T02:55:07;100193.84;;;2.49;84.81
68859;BME280;55864;49.238;8.092;2023-01-28T02:57:18;100188.75;;;2.48;84.96
68859;BME280;55864;49.238;8.092;2023-01-28T02:59:27;100192.16;;;2.48;84.92
68859;BME280;55864;49.238;8.092;2023-01-28T03:01:38;100189.44;;;2.51;85.00
68859;BME280;55864;49.238;8.092;2023-01-28T03:03:49;100189.50;;;2.50;84.86
68859;BME280;55864;49.238;8.092;2023-01-28T03:05:57;100186.91;;;2.50;84.67
68859;BME280;55864;49.238;8.092;2023-01-28T03:08:00;100185.22;;;2.49;84.67
68859;BME280;55864;49.238;8.092;2023-01-28T03:10:04;100182.56;;;2.50;84.75
68859;BME280;55864;49.238;8.092;2023-01-28T03:12:08;100184.25;;;2.51;84.37
68859;BME280;55864;49.238;8.092;2023-01-28T03:14:10;100187.75;;;2.50;84.30
68859;BME280;55864;49.238;8.092;2023-01-28T03:16:12;100183.47;;;2.49;84.29
68859;BME280;55864;49.238;8.092;2023-01-28T03:18:17;100183.47;;;2.49;83.84
68859;BME280;55864;49.238;8.092;2023-01-28T03:20:19;100191.25;;;2.49;84.23
68859;BME280;55864;49.238;8.092;2023-01-28T03:22:23;100192.16;;;2.48;84.39
68859;BME280;55864;49.238;8.092;2023-01-28T03:24:27;100205.28;;;2.45;84.37
68859;BME280;55864;49.238;8.092;2023-01-28T03:26:31;100193.38;;;2.41;84.50
68859;BME280;55864;49.238;8.092;2023-01-28T03:28:38;100197.72;;;2.41;84.55
68859;BME280;55864;49.238;8.092;2023-01-28T03:30:42;100200.22;;;2.42;84.27
68859;BME280;55864;49.238;8.092;2023-01-28T03:32:49;100208.94;;;2.41;84.44
68859;BME280;55864;49.238;8.092;2023-01-28T03:34:52;100216.63;;;2.43;84.23
68859;BME280;55864;49.238;8.092;2023-01-28T03:36:54;100209.00;;;2.40;84.33
68859;BME280;55864;49.238;8.092;2023-01-28T03:39:07;100211.53;;;2.41;84.23
68859;BME280;55864;49.238;8.092;2023-01-28T03:41:09;100210.59;;;2.42;83.97
68859;BME280;55864;49.238;8.092;2023-01-28T03:43:10;100215.03;;;2.40;84.11
68859;BME280;55864;49.238;8.092;2023-01-28T03:45:11;100216.78;;;2.40;84.04
68859;BME280;55864;49.238;8.092;2023-01-28T03:47:12;100217.56;;;2.42;84.23
68859;BME280;55864;49.238;8.092;2023-01-28T03:49:14;100214.88;;;2.43;83.97
68859;BME280;55864;49.238;8.092;2023-01-28T03:51:16;100210.53;;;2.44;83.77
68859;BME280;55864;49.238;8.092;2023-01-28T03:53:17;100222.59;;;2.45;83.73
68859;BME280;55864;49.238;8.092;2023-01-28T03:55:19;100218.25;;;2.45;83.65
68859;BME280;55864;49.238;8.092;2023-01-28T03:57:22;100207.19;;;2.42;83.28
68859;BME280;55864;49.238;8.092;2023-01-28T03:59:23;100216.63;;;2.43;83.37
68859;BME280;55864;49.238;8.092;2023-01-28T04:01:24;100215.84;;;2.41;83.25
68859;BME280;55864;49.238;8.092;2023-01-28T04:03:24;100220.22;;;2.40;83.37
68859;BME280;55864;49.238;8.092;2023-01-28T04:05:31;100211.69;;;2.38;83.16
68859;BME280;55864;49.238;8.092;2023-01-28T04:07:35;100220.28;;;2.39;82.95
68859;BME280;55864;49.238;8.092;2023-01-28T04:09:43;100219.50;;;2.37;83.00
68859;BME280;55864;49.238;8.092;2023-01-28T04:12:16;100223.03;;;2.36;83.12
68859;BME280;55864;49.238;8.092;2023-01-28T04:14:22;100228.41;;;2.31;82.99
68859;BME280;55864;49.238;8.092;2023-01-28T04:16:27;100228.41;;;2.31;83.44
68859;BME280;55864;49.238;8.092;2023-01-28T04:18:28;100229.25;;;2.32;83.49
68859;BME280;55864;49.238;8.092;2023-01-28T04:20:31;100231.78;;;2.33;83.73
68859;BME280;55864;49.238;8.092;2023-01-28T04:22:34;100236.06;;;2.34;83.18
68859;BME280;55864;49.238;8.092;2023-01-28T04:24:35;100229.25;;;2.32;83.12
68859;BME280;55864;49.238;8.092;2023-01-28T04:26:36;100237.88;;;2.32;83.20
68859;BME280;55864;49.238;8.092;2023-01-28T04:28:37;100236.94;;;2.33;82.95
68859;BME280;55864;49.238;8.092;2023-01-28T04:30:39;100239.63;;;2.32;83.08
68859;BME280;55864;49.238;8.092;2023-01-28T04:33:00;100240.59;;;2.29;82.90
68859;BME280;55864;49.238;8.092;2023-01-28T04:35:11;100235.66;;;2.25;83.02
68859;BME280;55864;49.238;8.092;2023-01-28T04:37:26;100244.28;;;2.25;83.13
68859;BME280;55864;49.238;8.092;2023-01-28T04:39:54;100246.88;;;2.25;83.14
68859;BME280;55864;49.238;8.092;2023-01-28T04:42:10;100245.94;;;2.26;82.90
68859;BME280;55864;49.238;8.092;2023-01-28T04:44:31;100246.00;;;2.25;82.81
68859;BME280;55864;49.238;8.092;2023-01-28T04:46:50;100241.69;;;2.25;83.07
68859;BME280;55864;49.238;8.092;2023-01-28T04:49:05;100242.56;;;2.24;83.34
68859;BME280;55864;49.238;8.092;2023-01-28T04:51:24;100248.69;;;2.23;82.92
68859;BME280;55864;49.238;8.092;2023-01-28T04:53:50;100245.16;;;2.24;83.13
68859;BME280;55864;49.238;8.092;2023-01-28T04:56:01;100244.19;;;2.27;83.23
68859;BME280;55864;49.238;8.092;2023-01-28T04:58:05;100252.66;;;2.30;82.95
68859;BME280;55864;49.238;8.092;2023-01-28T05:00:08;100250.00;;;2.32;82.71
68859;BME280;55864;49.238;8.092;2023-01-28T05:02:08;100252.66;;;2.30;82.63
68859;BME280;55864;49.238;8.092;2023-01-28T05:04:09;100249.22;;;2.30;82.68
68859;BME280;55864;49.238;8.092;2023-01-28T05:06:12;100247.59;;;2.27;82.67
68859;BME280;55864;49.238;8.092;2023-01-28T05:08:20;100243.34;;;2.26;82.84
68859;BME280;55864;49.238;8.092;2023-01-28T05:10:22;100245.94;;;2.26;82.93
68859;BME280;55864;49.238;8.092;2023-01-28T05:12:24;100258.13;;;2.24;82.65
68859;BME280;55864;49.238;8.092;2023-01-28T05:14:26;100253.78;;;2.25;82.77
68859;BME280;55864;49.238;8.092;2023-01-28T05:16:36;100253.78;;;2.25;82.83
68859;BME280;55864;49.238;8.092;2023-01-28T05:18:37;100241.81;;;2.22;83.00
68859;BME280;55864;49.238;8.092;2023-01-28T05:20:49;100253.91;;;2.22;83.08
68859;BME280;55864;49.238;8.092;2023-01-28T05:22:50;100254.91;;;2.19;83.20
68859;BME280;55864;49.238;8.092;2023-01-28T05:24:55;100254.91;;;2.19;83.02
68859;BME280;55864;49.238;8.092;2023-01-28T05:26:57;100266.06;;;2.21;83.02
68859;BME280;55864;49.238;8.092;2023-01-28T05:28:59;100249.72;;;2.19;82.92
68859;BME280;55864;49.238;8.092;2023-01-28T05:31:02;100257.50;;;2.19;83.16
68859;BME280;55864;49.238;8.092;2023-01-28T05:33:03;100260.91;;;2.20;83.41
68859;BME280;55864;49.238;8.092;2023-01-28T05:35:05;100263.59;;;2.18;83.38
68859;BME280;55864;49.238;8.092;2023-01-28T05:37:05;100265.28;;;2.19;83.32
68859;BME280;55864;49.238;8.092;2023-01-28T05:39:10;100268.75;;;2.18;82.95
68859;BME280;55864;49.238;8.092;2023-01-28T05:41:10;100267.88;;;2.19;83.05
68859;BME280;55864;49.238;8.092;2023-01-28T05:43:11;100270.47;;;2.19;83.54
68859;BME280;55864;49.238;8.092;2023-01-28T05:45:21;100281.59;;;2.21;83.05
68859;BME280;55864;49.238;8.092;2023-01-28T05:47:44;100279.13;;;2.18;82.92
68859;BME280;55864;49.238;8.092;2023-01-28T05:49:57;100286.97;;;2.17;83.21
68859;BME280;55864;49.238;8.092;2023-01-28T05:52:17;100289.50;;;2.18;83.15
68859;BME280;55864;49.238;8.092;2023-01-28T05:54:18;100286.00;;;2.19;83.09
68859;BME280;55864;49.238;8.092;2023-01-28T05:56:19;100290.25;;;2.20;83.10
68859;BME280;55864;49.238;8.092;2023-01-28T05:58:20;100295.44;;;2.20;83.09
68859;BME280;55864;49.238;8.092;2023-01-28T06:00:22;100289.50;;;2.18;83.05
68859;BME280;55864;49.238;8.092;2023-01-28T06:02:23;100299.16;;;2.15;83.28
68859;BME280;55864;49.238;8.092;2023-01-28T06:04:27;100301.69;;;2.16;83.06
68859;BME280;55864;49.238;8.092;2023-01-28T06:06:27;100302.69;;;2.14;83.00
68859;BME280;55864;49.238;8.092;2023-01-28T06:08:28;100304.41;;;2.13;83.13
68859;BME280;55864;49.238;8.092;2023-01-28T06:10:28;100300.97;;;2.13;82.93
68859;BME280;55864;49.238;8.092;2023-01-28T06:12:29;100308.69;;;2.14;83.41
68859;BME280;55864;49.238;8.092;2023-01-28T06:14:56;100308.69;;;2.14;82.75
68859;BME280;55864;49.238;8.092;2023-01-28T06:17:21;100307.13;;;2.10;83.06
68859;BME280;55864;49.238;8.092;2023-01-28T06:19:35;100310.56;;;2.11;83.08
68859;BME280;55864;49.238;8.092;2023-01-28T06:21:35;100319.97;;;2.13;83.15
68859;BME280;55864;49.238;8.092;2023-01-28T06:23:36;100325.06;;;2.15;83.08
68859;BME280;55864;49.238;8.092;2023-01-28T06:25:41;100324.22;;;2.14;83.28
68859;BME280;55864;49.238;8.092;2023-01-28T06:27:45;100327.66;;;2.15;83.04
68859;BME280;55864;49.238;8.092;2023-01-28T06:29:45;100326.00;;;2.14;82.90
68859;BME280;55864;49.238;8.092;2023-01-28T06:31:46;100328.44;;;2.17;83.01
68859;BME280;55864;49.238;8.092;2023-01-28T06:33:48;100339.72;;;2.16;83.33
68859;BME280;55864;49.238;8.092;2023-01-28T06:35:48;100339.66;;;2.17;83.06
68859;BME280;55864;49.238;8.092;2023-01-28T06:37:49;100339.59;;;2.19;83.09
68859;BME280;55864;49.238;8.092;2023-01-28T06:39:50;100344.69;;;2.20;83.21
68859;BME280;55864;49.238;8.092;2023-01-28T06:41:50;100347.28;;;2.20;83.05
68859;BME280;55864;49.238;8.092;2023-01-28T06:43:51;100345.81;;;2.15;83.14
68859;BME280;55864;49.238;8.092;2023-01-28T06:45:51;100348.31;;;2.16;83.20
68859;BME280;55864;49.238;8.092;2023-01-28T06:47:52;100349.94;;;2.19;83.37
68859;BME280;55864;49.238;8.092;2023-01-28T06:49:54;100345.63;;;2.19;83.16
68859;BME280;55864;49.238;8.092;2023-01-28T06:51:54;100347.44;;;2.17;83.42
68859;BME280;55864;49.238;8.092;2023-01-28T06:53:55;100348.41;;;2.15;83.16
68859;BME280;55864;49.238;8.092;2023-01-28T06:55:55;100352.69;;;2.16;83.26
68859;BME280;55864;49.238;8.092;2023-01-28T06:57:56;100353.50;;;2.16;83.38
68859;BME280;55864;49.238;8.092;2023-01-28T06:59:56;100356.88;;;2.18;83.10
68859;BME280;55864;49.238;8.092;2023-01-28T07:01:57;100354.19;;;2.20;83.27
68859;BME280;55864;49.238;8.092;2023-01-28T07:03:57;100363.75;;;2.19;83.06
68859;BME280;55864;49.238;8.092;2023-01-28T07:05:59;100358.69;;;2.16;83.29
68859;BME280;55864;49.238;8.092;2023-01-28T07:07:59;100363.94;;;2.15;83.48
68859;BME280;55864;49.238;8.092;2023-01-28T07:10:00;100361.50;;;2.12;83.21
68859;BME280;55864;49.238;8.092;2023-01-28T07:12:00;100361.50;;;2.12;83.37
68859;BME280;55864;49.238;8.092;2023-01-28T07:14:01;100360.66;;;2.11;83.56
68859;BME280;55864;49.238;8.092;2023-01-28T07:16:02;100358.91;;;2.12;83.55
68859;BME280;55864;49.238;8.092;2023-01-28T07:18:03;100359.81;;;2.11;83.67
68859;BME280;55864;49.238;8.092;2023-01-28T07:20:04;100361.53;;;2.10;83.46
68859;BME280;55864;49.238;8.092;2023-01-28T07:22:06;100367.66;;;2.09;83.46
68859;BME280;55864;49.238;8.092;2023-01-28T07:24:07;100359.88;;;2.09;83.70
68859;BME280;55864;49.238;8.092;2023-01-28T07:26:08;100363.25;;;2.11;83.62
68859;BME280;55864;49.238;8.092;2023-01-28T07:28:09;100358.06;;;2.11;83.55
68859;BME280;55864;49.238;8.092;2023-01-28T07:30:10;100366.69;;;2.12;83.47
68859;BME280;55864;49.238;8.092;2023-01-28T07:32:11;100369.38;;;2.09;83.83
68859;BME280;55864;49.238;8.092;2023-01-28T07:34:12;100371.97;;;2.09;83.66
68859;BME280;55864;49.238;8.092;2023-01-28T07:36:12;100368.63;;;2.07;83.42
68859;BME280;55864;49.238;8.092;2023-01-28T07:38:14;100368.56;;;2.08;83.76
68859;BME280;55864;49.238;8.092;2023-01-28T07:40:15;100368.63;;;2.07;83.58
68859;BME280;55864;49.238;8.092;2023-01-28T07:42:16;100379.13;;;2.04;84.20
68859;BME280;55864;49.238;8.092;2023-01-28T07:44:20;100377.31;;;2.06;83.89
68859;BME280;55864;49.238;8.092;2023-01-28T07:46:21;100382.41;;;2.07;84.00
68859;BME280;55864;49.238;8.092;2023-01-28T07:48:21;100382.22;;;2.12;83.49
68859;BME280;55864;49.238;8.092;2023-01-28T07:50:22;100376.13;;;2.13;83.33
68859;BME280;55864;49.238;8.092;2023-01-28T07:52:23;100372.91;;;2.08;83.32
68859;BME280;55864;49.238;8.092;2023-01-28T07:54:25;100374.66;;;2.07;83.59
68859;BME280;55864;49.238;8.092;2023-01-28T07:56:25;100379.81;;;2.07;83.34
68859;BME280;55864;49.238;8.092;2023-01-28T07:58:26;100380.75;;;2.06;83.40
68859;BME280;55864;49.238;8.092;2023-01-28T08:00:29;100386.72;;;2.08;83.19
68859;BME280;55864;49.238;8.092;2023-01-28T08:02:29;100383.34;;;2.06;83.11
68859;BME280;55864;49.238;8.092;2023-01-28T08:04:30;100382.50;;;2.06;82.68
68859;BME280;55864;49.238;8.092;2023-01-28T08:06:30;100392.16;;;2.02;82.77
68859;BME280;55864;49.238;8.092;2023-01-28T08:08:31;100388.63;;;2.03;82.25
68859;BME280;55864;49.238;8.092;2023-01-28T08:10:33;100400.72;;;2.03;81.62
68859;BME280;55864;49.238;8.092;2023-01-28T08:12:34;100401.66;;;2.02;81.95
68859;BME280;55864;49.238;8.092;2023-01-28T08:14:34;100394.91;;;1.98;82.23
68859;BME280;55864;49.238;8.092;2023-01-28T08:16:34;100403.53;;;1.98;81.86
68859;BME280;55864;49.238;8.092;2023-01-28T08:18:35;100402.69;;;1.98;81.78
68859;BME280;55864;49.238;8.092;2023-01-28T08:20:36;100404.44;;;1.97;81.55
68859;BME280;55864;49.238;8.092;2023-01-28T08:22:36;100401.97;;;1.94;81.85
68859;BME280;55864;49.238;8.092;2023-01-28T08:24:37;100409.75;;;1.94;82.18
68859;BME280;55864;49.238;8.092;2023-01-28T08:26:38;100412.34;;;1.94;81.94
68859;BME280;55864;49.238;8.092;2023-01-28T08:28:39;100403.72;;;1.93;82.32
68859;BME280;55864;49.238;8.092;2023-01-28T08:30:40;100401.84;;;1.97;82.01
68859;BME280;55864;49.238;8.092;2023-01-28T08:32:41;100404.44;;;1.97;81.32
68859;BME280;55864;49.238;8.092;2023-01-28T08:34:41;100407.03;;;1.97;80.51
68859;BME280;55864;49.238;8.092;2023-01-28T08:36:42;100414.78;;;1.97;80.82
68859;BME280;55864;49.238;8.092;2023-01-28T08:38:42;100410.59;;;1.95;80.80
68859;BME280;55864;49.238;8.092;2023-01-28T08:40:43;100416.59;;;1.95;80.77
68859;BME280;55864;49.238;8.092;2023-01-28T08:42:47;100413.13;;;1.96;81.17
68859;BME280;55864;49.238;8.092;2023-01-28T08:44:48;100411.31;;;1.98;81.56
68859;BME280;55864;49.238;8.092;2023-01-28T08:46:48;100414.69;;;2.00;81.04
68859;BME280;55864;49.238;8.092;2023-01-28T08:48:49;100412.03;;;2.02;81.04
68859;BME280;55864;49.238;8.092;2023-01-28T08:50:50;100414.69;;;2.00;81.31
68859;BME280;55864;49.238;8.092;2023-01-28T08:52:54;100408.59;;;2.01;81.53
68859;BME280;55864;49.238;8.092;2023-01-28T08:54:55;100414.53;;;2.03;81.34
68859;BME280;55864;49.238;8.092;2023-01-28T08:56:56;100416.25;;;2.04;81.77
68859;BME280;55864;49.238;8.092;2023-01-28T08:58:57;100411.75;;;2.08;81.35
68859;BME280;55864;49.238;8.092;2023-01-28T09:01:03;100414.28;;;2.09;81.38
68859;BME280;55864;49.238;8.092;2023-01-28T09:03:04;100411.69;;;2.09;81.23
68859;BME280;55864;49.238;8.092;2023-01-28T09:05:05;100417.66;;;2.11;80.94
68859;BME280;55864;49.238;8.092;2023-01-28T09:07:06;100413.31;;;2.12;81.00
68859;BME280;55864;49.238;8.092;2023-01-28T09:09:07;100412.31;;;2.14;80.78
68859;BME280;55864;49.238;8.092;2023-01-28T09:11:07;100414.03;;;2.15;80.62
68859;BME280;55864;49.238;8.092;2023-01-28T09:13:09;100414.03;;;2.15;80.05
68859;BME280;55864;49.238;8.092;2023-01-28T09:15:11;100424.13;;;2.21;80.36
68859;BME280;55864;49.238;8.092;2023-01-28T09:17:12;100415.50;;;2.21;80.86
68859;BME280;55864;49.238;8.092;2023-01-28T09:19:13;100428.53;;;2.19;80.73
68859;BME280;55864;49.238;8.092;2023-01-28T09:21:13;100419.91;;;2.19;80.32
68859;BME280;55864;49.238;8.092;2023-01-28T09:23:14;100418.09;;;2.21;80.54
68859;BME280;55864;49.238;8.092;2023-01-28T09:25:15;100422.44;;;2.20;80.19
68859;BME280;55864;49.238;8.092;2023-01-28T09:27:16;100419.72;;;2.23;80.46
68859;BME280;55864;49.238;8.092;2023-01-28T09:29:17;100426.59;;;2.24;80.08
68859;BME280;55864;49.238;8.092;2023-01-28T09:31:19;100437.09;;;2.21;80.28
68859;BME280;55864;49.238;8.092;2023-01-28T09:33:19;100440.50;;;2.22;80.08
68859;BME280;55864;49.238;8.092;2023-01-28T09:35:20;100437.03;;;2.23;80.34
68859;BME280;55864;49.238;8.092;2023-01-28T09:37:21;100440.50;;;2.22;80.15
68859;BME280;55864;49.238;8.092;2023-01-28T09:39:21;100436.16;;;2.22;80.41
68859;BME280;55864;49.238;8.092;2023-01-28T09:41:25;100444.56;;;2.27;79.87
68859;BME280;55864;49.238;8.092;2023-01-28T09:43:40;100442.72;;;2.31;80.24
68859;BME280;55864;49.238;8.092;2023-01-28T09:45:46;100446.09;;;2.33;80.05
68859;BME280;55864;49.238;8.092;2023-01-28T09:47:51;100441.81;;;2.32;80.31
68859;BME280;55864;49.238;8.092;2023-01-28T09:49:53;100453.88;;;2.33;80.24
68859;BME280;55864;49.238;8.092;2023-01-28T09:51:55;100452.88;;;2.35;80.16
68859;BME280;55864;49.238;8.092;2023-01-28T09:53:58;100459.75;;;2.36;80.12
68859;BME280;55864;49.238;8.092;2023-01-28T09:56:03;100449.38;;;2.36;80.06
68859;BME280;55864;49.238;8.092;2023-01-28T09:58:05;100453.78;;;2.34;79.83
68859;BME280;55864;49.238;8.092;2023-01-28T10:00:13;100453.72;;;2.36;80.08
68859;BME280;55864;49.238;8.092;2023-01-28T10:02:30;100460.56;;;2.37;80.18
68859;BME280;55864;49.238;8.092;2023-01-28T10:04:47;100456.16;;;2.39;80.24
68859;BME280;55864;49.238;8.092;2023-01-28T10:06:58;100457.03;;;2.39;79.84
68859;BME280;55864;49.238;8.092;2023-01-28T10:09:25;100456.88;;;2.42;79.88
68859;BME280;55864;49.238;8.092;2023-01-28T10:11:40;100455.78;;;2.48;79.65
68859;BME280;55864;49.238;8.092;2023-01-28T10:13:48;100454.78;;;2.50;79.52
68859;BME280;55864;49.238;8.092;2023-01-28T10:16:02;100458.25;;;2.51;79.64
68859;BME280;55864;49.238;8.092;2023-01-28T10:18:06;100461.53;;;2.54;79.71
68859;BME280;55864;49.238;8.092;2023-01-28T10:20:18;100458.94;;;2.54;79.91
68859;BME280;55864;49.238;8.092;2023-01-28T10:22:23;100451.88;;;2.58;80.61
68859;BME280;55864;49.238;8.092;2023-01-28T10:24:28;100450.91;;;2.60;81.04
68859;BME280;55864;49.238;8.092;2023-01-28T10:26:35;100450.75;;;2.63;83.14
68859;BME280;55864;49.238;8.092;2023-01-28T10:28:38;100458.25;;;2.69;83.49
68859;BME280;55864;49.238;8.092;2023-01-28T10:30:41;100453.16;;;2.68;81.25
68859;BME280;55864;49.238;8.092;2023-01-28T10:32:50;100454.78;;;2.70;81.42
68859;BME280;55864;49.238;8.092;2023-01-28T10:34:51;100454.78;;;2.70;80.32
68859;BME280;55864;49.238;8.092;2023-01-28T10:36:53;100461.63;;;2.71;80.06
68859;BME280;55864;49.238;8.092;2023-01-28T10:38:56;100451.25;;;2.71;79.74
68859;BME280;55864;49.238;8.092;2023-01-28T10:40:59;100460.84;;;2.69;79.61
68859;BME280;55864;49.238;8.092;2023-01-28T10:43:00;100459.13;;;2.70;79.35
68859;BME280;55864;49.238;8.092;2023-01-28T10:45:06;100454.03;;;2.67;78.97
68859;BME280;55864;49.238;8.092;2023-01-28T10:47:12;100452.53;;;2.63;79.09
68859;BME280;55864;49.238;8.092;2023-01-28T10:49:17;100455.31;;;2.58;79.28
68859;BME280;55864;49.238;8.092;2023-01-28T10:51:29;100457.97;;;2.57;78.83
68859;BME280;55864;49.238;8.092;2023-01-28T10:53:35;100466.72;;;2.54;78.77
68859;BME280;55864;49.238;8.092;2023-01-28T10:55:48;100456.50;;;2.51;78.75
68859;BME280;55864;49.238;8.092;2023-01-28T10:57:50;100460.75;;;2.52;78.81
68859;BME280;55864;49.238;8.092;2023-01-28T10:59:50;100466.09;;;2.49;79.20